<?xml version="1.0" encoding="utf-8"?>
<gpx xmlns:xsi="http://www.w3.org/2001/XMLSchema-instance" xmlns:xsd="http://www.w3.org/2001/XMLSchema" version="1.1" creator="Shapelink.com" xmlns="http://www.topografix.com/GPX/1/1" xmlns:gpxtpx="http://www.garmin.com/xmlschemas/TrackPointExtension/v1">
  <metadata>
    <name>Gåing 1.62 km, 2012-05-22</name>
    <desc></desc>
    <author><name>Mikael Blom</name></author> 
    <time>2012-05-22T16:56:35Z</time>
  </metadata>
  <trk>
    <name>Gåing 1.62 km, 2012-05-22</name>
    <trkseg>
      <trkpt lat="59.985624" lon="17.7374696">
        <ele>135.203</ele>
        <time>2012-05-22T16:56:35Z</time>
      </trkpt>
      <trkpt lat="59.9853978" lon="17.7378096">
        <ele>92.424</ele>
        <time>2012-05-22T16:56:37Z</time>
      </trkpt>
      <trkpt lat="59.9853557" lon="17.7379907">
        <ele>77.0428</ele>
        <time>2012-05-22T16:56:41Z</time>
      </trkpt>
      <trkpt lat="59.9853968" lon="17.7379893">
        <ele>74.6395</ele>
        <time>2012-05-22T16:56:45Z</time>
      </trkpt>
      <trkpt lat="59.9853724" lon="17.7380572">
        <ele>68.3909</ele>
        <time>2012-05-22T16:56:47Z</time>
      </trkpt>
      <trkpt lat="59.9854563" lon="17.7380728">
        <ele>66.949</ele>
        <time>2012-05-22T16:56:55Z</time>
      </trkpt>
      <trkpt lat="59.9855785" lon="17.7380865">
        <ele>71.2749</ele>
        <time>2012-05-22T16:57:00Z</time>
      </trkpt>
      <trkpt lat="59.9856682" lon="17.7381204">
        <ele>71.7555</ele>
        <time>2012-05-22T16:57:05Z</time>
      </trkpt>
      <trkpt lat="59.985754" lon="17.7381344">
        <ele>75.1202</ele>
        <time>2012-05-22T16:57:12Z</time>
      </trkpt>
      <trkpt lat="59.9857894" lon="17.7382344">
        <ele>70.3135</ele>
        <time>2012-05-22T16:57:17Z</time>
      </trkpt>
      <trkpt lat="59.9858038" lon="17.7383038">
        <ele>65.5071</ele>
        <time>2012-05-22T16:57:20Z</time>
      </trkpt>
      <trkpt lat="59.9858316" lon="17.7383098">
        <ele>64.5457</ele>
        <time>2012-05-22T16:57:23Z</time>
      </trkpt>
      <trkpt lat="59.9859359" lon="17.7382897">
        <ele>68.3909</ele>
        <time>2012-05-22T16:57:29Z</time>
      </trkpt>
      <trkpt lat="59.9860194" lon="17.7383219">
        <ele>71.7555</ele>
        <time>2012-05-22T16:57:34Z</time>
      </trkpt>
      <trkpt lat="59.9861179" lon="17.738336">
        <ele>72.7169</ele>
        <time>2012-05-22T16:57:41Z</time>
      </trkpt>
      <trkpt lat="59.9861313" lon="17.7383287">
        <ele>73.1976</ele>
        <time>2012-05-22T16:57:42Z</time>
      </trkpt>
      <trkpt lat="59.9862053" lon="17.7383747">
        <ele>74.6395</ele>
        <time>2012-05-22T16:57:47Z</time>
      </trkpt>
      <trkpt lat="59.9862864" lon="17.7383944">
        <ele>77.5234</ele>
        <time>2012-05-22T16:57:51Z</time>
      </trkpt>
      <trkpt lat="59.98643" lon="17.7384633">
        <ele>82.3301</ele>
        <time>2012-05-22T16:58:00Z</time>
      </trkpt>
      <trkpt lat="59.9865123" lon="17.7385524">
        <ele>84.7334</ele>
        <time>2012-05-22T16:58:06Z</time>
      </trkpt>
      <trkpt lat="59.9865508" lon="17.7385927">
        <ele>86.1753</ele>
        <time>2012-05-22T16:58:11Z</time>
      </trkpt>
      <trkpt lat="59.9865698" lon="17.7385961">
        <ele>86.656</ele>
        <time>2012-05-22T16:58:12Z</time>
      </trkpt>
      <trkpt lat="59.9866367" lon="17.7386462">
        <ele>88.5787</ele>
        <time>2012-05-22T16:58:16Z</time>
      </trkpt>
      <trkpt lat="59.9867233" lon="17.7386685">
        <ele>90.5013</ele>
        <time>2012-05-22T16:58:22Z</time>
      </trkpt>
      <trkpt lat="59.9867517" lon="17.7387048">
        <ele>89.0593</ele>
        <time>2012-05-22T16:58:25Z</time>
      </trkpt>
      <trkpt lat="59.9868174" lon="17.7387522">
        <ele>91.4625</ele>
        <time>2012-05-22T16:58:29Z</time>
      </trkpt>
      <trkpt lat="59.9869045" lon="17.7388656">
        <ele>94.8271</ele>
        <time>2012-05-22T16:58:35Z</time>
      </trkpt>
      <trkpt lat="59.9870429" lon="17.7389317">
        <ele>100.595</ele>
        <time>2012-05-22T16:58:42Z</time>
      </trkpt>
      <trkpt lat="59.9871584" lon="17.7389866">
        <ele>106.363</ele>
        <time>2012-05-22T16:58:48Z</time>
      </trkpt>
      <trkpt lat="59.9872862" lon="17.7390305">
        <ele>113.092</ele>
        <time>2012-05-22T16:58:54Z</time>
      </trkpt>
      <trkpt lat="59.9874121" lon="17.7390528">
        <ele>118.379</ele>
        <time>2012-05-22T16:59:00Z</time>
      </trkpt>
      <trkpt lat="59.9874383" lon="17.739033">
        <ele>118.86</ele>
        <time>2012-05-22T16:59:02Z</time>
      </trkpt>
      <trkpt lat="59.9875121" lon="17.7390296">
        <ele>119.341</ele>
        <time>2012-05-22T16:59:06Z</time>
      </trkpt>
      <trkpt lat="59.9875547" lon="17.7390664">
        <ele>115.015</ele>
        <time>2012-05-22T16:59:10Z</time>
      </trkpt>
      <trkpt lat="59.9876182" lon="17.7390842">
        <ele>114.054</ele>
        <time>2012-05-22T16:59:14Z</time>
      </trkpt>
      <trkpt lat="59.9876786" lon="17.7390871">
        <ele>113.573</ele>
        <time>2012-05-22T16:59:19Z</time>
      </trkpt>
      <trkpt lat="59.9877386" lon="17.7390684">
        <ele>115.015</ele>
        <time>2012-05-22T16:59:23Z</time>
      </trkpt>
      <trkpt lat="59.9877755" lon="17.7390474">
        <ele>115.976</ele>
        <time>2012-05-22T16:59:25Z</time>
      </trkpt>
      <trkpt lat="59.9878643" lon="17.7389941">
        <ele>118.86</ele>
        <time>2012-05-22T16:59:31Z</time>
      </trkpt>
      <trkpt lat="59.9878786" lon="17.7389975">
        <ele>118.379</ele>
        <time>2012-05-22T16:59:32Z</time>
      </trkpt>
      <trkpt lat="59.9879842" lon="17.738989">
        <ele>117.418</ele>
        <time>2012-05-22T16:59:38Z</time>
      </trkpt>
      <trkpt lat="59.9880528" lon="17.7389782">
        <ele>117.418</ele>
        <time>2012-05-22T16:59:42Z</time>
      </trkpt>
      <trkpt lat="59.9880992" lon="17.7389798">
        <ele>119.821</ele>
        <time>2012-05-22T16:59:45Z</time>
      </trkpt>
      <trkpt lat="59.9881753" lon="17.7389627">
        <ele>122.705</ele>
        <time>2012-05-22T16:59:50Z</time>
      </trkpt>
      <trkpt lat="59.9882645" lon="17.7389214">
        <ele>121.744</ele>
        <time>2012-05-22T16:59:57Z</time>
      </trkpt>
      <trkpt lat="59.9883058" lon="17.7389177">
        <ele>121.744</ele>
        <time>2012-05-22T17:00:00Z</time>
      </trkpt>
      <trkpt lat="59.9883776" lon="17.7389271">
        <ele>118.86</ele>
        <time>2012-05-22T17:00:06Z</time>
      </trkpt>
      <trkpt lat="59.9885475" lon="17.738871">
        <ele>123.186</ele>
        <time>2012-05-22T17:00:14Z</time>
      </trkpt>
      <trkpt lat="59.988655" lon="17.7388461">
        <ele>123.667</ele>
        <time>2012-05-22T17:00:20Z</time>
      </trkpt>
      <trkpt lat="59.9886755" lon="17.738846">
        <ele>124.628</ele>
        <time>2012-05-22T17:00:21Z</time>
      </trkpt>
      <trkpt lat="59.9887395" lon="17.7388688">
        <ele>122.705</ele>
        <time>2012-05-22T17:00:27Z</time>
      </trkpt>
      <trkpt lat="59.9888181" lon="17.7388586">
        <ele>119.341</ele>
        <time>2012-05-22T17:00:34Z</time>
      </trkpt>
      <trkpt lat="59.9888799" lon="17.7388191">
        <ele>121.264</ele>
        <time>2012-05-22T17:00:37Z</time>
      </trkpt>
      <trkpt lat="59.9889104" lon="17.7388437">
        <ele>120.783</ele>
        <time>2012-05-22T17:00:39Z</time>
      </trkpt>
      <trkpt lat="59.9890062" lon="17.7387798">
        <ele>121.744</ele>
        <time>2012-05-22T17:00:45Z</time>
      </trkpt>
      <trkpt lat="59.9890647" lon="17.7386917">
        <ele>119.341</ele>
        <time>2012-05-22T17:00:51Z</time>
      </trkpt>
      <trkpt lat="59.9891324" lon="17.7386224">
        <ele>118.379</ele>
        <time>2012-05-22T17:00:56Z</time>
      </trkpt>
      <trkpt lat="59.9892275" lon="17.7385659">
        <ele>114.534</ele>
        <time>2012-05-22T17:01:03Z</time>
      </trkpt>
      <trkpt lat="59.989293" lon="17.738499">
        <ele>112.612</ele>
        <time>2012-05-22T17:01:08Z</time>
      </trkpt>
      <trkpt lat="59.9893407" lon="17.73845">
        <ele>107.324</ele>
        <time>2012-05-22T17:01:14Z</time>
      </trkpt>
      <trkpt lat="59.9894071" lon="17.7384207">
        <ele>101.556</ele>
        <time>2012-05-22T17:01:21Z</time>
      </trkpt>
      <trkpt lat="59.9894797" lon="17.7383746">
        <ele>103.96</ele>
        <time>2012-05-22T17:01:25Z</time>
      </trkpt>
      <trkpt lat="59.9895329" lon="17.7383695">
        <ele>101.556</ele>
        <time>2012-05-22T17:01:31Z</time>
      </trkpt>
      <trkpt lat="59.989611" lon="17.7383312">
        <ele>100.595</ele>
        <time>2012-05-22T17:01:36Z</time>
      </trkpt>
      <trkpt lat="59.9897137" lon="17.7382877">
        <ele>102.998</ele>
        <time>2012-05-22T17:01:42Z</time>
      </trkpt>
      <trkpt lat="59.9897843" lon="17.7382927">
        <ele>98.6725</ele>
        <time>2012-05-22T17:01:48Z</time>
      </trkpt>
      <trkpt lat="59.9898496" lon="17.7382958">
        <ele>95.7885</ele>
        <time>2012-05-22T17:01:53Z</time>
      </trkpt>
      <trkpt lat="59.9898662" lon="17.7382996">
        <ele>96.7499</ele>
        <time>2012-05-22T17:01:54Z</time>
      </trkpt>
      <trkpt lat="59.9899164" lon="17.73823">
        <ele>96.7499</ele>
        <time>2012-05-22T17:01:59Z</time>
      </trkpt>
      <trkpt lat="59.9900287" lon="17.7382095">
        <ele>96.2693</ele>
        <time>2012-05-22T17:02:06Z</time>
      </trkpt>
      <trkpt lat="59.9900473" lon="17.7382012">
        <ele>95.3077</ele>
        <time>2012-05-22T17:02:08Z</time>
      </trkpt>
      <trkpt lat="59.9901221" lon="17.7381639">
        <ele>95.7885</ele>
        <time>2012-05-22T17:02:12Z</time>
      </trkpt>
      <trkpt lat="59.9901976" lon="17.7381513">
        <ele>97.7112</ele>
        <time>2012-05-22T17:02:15Z</time>
      </trkpt>
      <trkpt lat="59.9902456" lon="17.7381328">
        <ele>94.8271</ele>
        <time>2012-05-22T17:02:20Z</time>
      </trkpt>
      <trkpt lat="59.9903279" lon="17.7381218">
        <ele>95.7885</ele>
        <time>2012-05-22T17:02:25Z</time>
      </trkpt>
      <trkpt lat="59.9904411" lon="17.7380819">
        <ele>95.7885</ele>
        <time>2012-05-22T17:02:32Z</time>
      </trkpt>
      <trkpt lat="59.9905198" lon="17.7380325">
        <ele>97.7112</ele>
        <time>2012-05-22T17:02:37Z</time>
      </trkpt>
      <trkpt lat="59.9905375" lon="17.738036">
        <ele>95.7885</ele>
        <time>2012-05-22T17:02:39Z</time>
      </trkpt>
      <trkpt lat="59.9905621" lon="17.7379743">
        <ele>93.8658</ele>
        <time>2012-05-22T17:02:43Z</time>
      </trkpt>
      <trkpt lat="59.9905717" lon="17.7379731">
        <ele>93.3851</ele>
        <time>2012-05-22T17:02:45Z</time>
      </trkpt>
      <trkpt lat="59.9906286" lon="17.7379931">
        <ele>92.9045</ele>
        <time>2012-05-22T17:02:49Z</time>
      </trkpt>
      <trkpt lat="59.9907218" lon="17.7379723">
        <ele>93.8658</ele>
        <time>2012-05-22T17:02:56Z</time>
      </trkpt>
      <trkpt lat="59.9908037" lon="17.7379695">
        <ele>95.3077</ele>
        <time>2012-05-22T17:03:00Z</time>
      </trkpt>
      <trkpt lat="59.9908466" lon="17.7379229">
        <ele>94.3466</ele>
        <time>2012-05-22T17:03:03Z</time>
      </trkpt>
      <trkpt lat="59.9909123" lon="17.7379026">
        <ele>90.5013</ele>
        <time>2012-05-22T17:03:09Z</time>
      </trkpt>
      <trkpt lat="59.9909414" lon="17.7378718">
        <ele>89.5399</ele>
        <time>2012-05-22T17:03:12Z</time>
      </trkpt>
      <trkpt lat="59.9910333" lon="17.7378292">
        <ele>89.0593</ele>
        <time>2012-05-22T17:03:19Z</time>
      </trkpt>
      <trkpt lat="59.9910387" lon="17.7378287">
        <ele>89.0593</ele>
        <time>2012-05-22T17:03:20Z</time>
      </trkpt>
      <trkpt lat="59.9910765" lon="17.7378003">
        <ele>88.098</ele>
        <time>2012-05-22T17:03:23Z</time>
      </trkpt>
      <trkpt lat="59.991208" lon="17.7377089">
        <ele>93.3851</ele>
        <time>2012-05-22T17:03:30Z</time>
      </trkpt>
      <trkpt lat="59.9912793" lon="17.7376616">
        <ele>94.8271</ele>
        <time>2012-05-22T17:03:34Z</time>
      </trkpt>
      <trkpt lat="59.9913627" lon="17.7376076">
        <ele>96.2693</ele>
        <time>2012-05-22T17:03:39Z</time>
      </trkpt>
      <trkpt lat="59.9914862" lon="17.7375277">
        <ele>96.7499</ele>
        <time>2012-05-22T17:03:45Z</time>
      </trkpt>
      <trkpt lat="59.9916017" lon="17.7374694">
        <ele>103.96</ele>
        <time>2012-05-22T17:03:50Z</time>
      </trkpt>
      <trkpt lat="59.9917362" lon="17.7374112">
        <ele>113.092</ele>
        <time>2012-05-22T17:03:55Z</time>
      </trkpt>
      <trkpt lat="59.99191" lon="17.7374065">
        <ele>124.628</ele>
        <time>2012-05-22T17:04:02Z</time>
      </trkpt>
      <trkpt lat="59.9920837" lon="17.7373538">
        <ele>141.932</ele>
        <time>2012-05-22T17:04:07Z</time>
      </trkpt>
      <trkpt lat="59.9921913" lon="17.7373293">
        <ele>146.258</ele>
        <time>2012-05-22T17:04:13Z</time>
      </trkpt>
      <trkpt lat="59.992207" lon="17.7373272">
        <ele>145.777</ele>
        <time>2012-05-22T17:04:14Z</time>
      </trkpt>
      <trkpt lat="59.9923566" lon="17.73722">
        <ele>154.429</ele>
        <time>2012-05-22T17:04:20Z</time>
      </trkpt>
      <trkpt lat="59.9924322" lon="17.7372295">
        <ele>146.738</ele>
        <time>2012-05-22T17:04:26Z</time>
      </trkpt>
      <trkpt lat="59.9924547" lon="17.7372323">
        <ele>142.412</ele>
        <time>2012-05-22T17:04:30Z</time>
      </trkpt>
      <trkpt lat="59.9924815" lon="17.7372299">
        <ele>142.893</ele>
        <time>2012-05-22T17:04:32Z</time>
      </trkpt>
      <trkpt lat="59.992624" lon="17.7371249">
        <ele>152.026</ele>
        <time>2012-05-22T17:04:38Z</time>
      </trkpt>
      <trkpt lat="59.992697" lon="17.7371243">
        <ele>153.468</ele>
        <time>2012-05-22T17:04:43Z</time>
      </trkpt>
      <trkpt lat="59.9927363" lon="17.7371502">
        <ele>148.18</ele>
        <time>2012-05-22T17:04:48Z</time>
      </trkpt>
      <trkpt lat="59.992754" lon="17.7371475">
        <ele>148.18</ele>
        <time>2012-05-22T17:04:49Z</time>
      </trkpt>
    </trkseg>
  </trk>
</gpx>